createdAt,value
2017-05-18T00:01:37.253Z,99886.37
2017-05-18T00:04:06.312Z,99885.77
2017-05-18T00:06:35.401Z,99887.34
2017-05-18T00:09:04.486Z,99887.37
2017-05-18T00:11:33.542Z,99886.58
2017-05-18T00:14:02.661Z,99880.34
2017-05-18T00:16:31.725Z,99882.17
2017-05-18T00:19:00.796Z,99876.84
2017-05-18T00:21:29.837Z,99865.57
2017-05-18T00:23:58.911Z,99869.57
2017-05-18T00:26:27.957Z,99868.77
2017-05-18T00:28:56.997Z,99866.56
2017-05-18T00:31:26.057Z,99866.98
2017-05-18T00:33:55.096Z,99863.61
2017-05-18T00:36:24.193Z,99863.27
2017-05-18T00:38:53.229Z,99859.98
2017-05-18T00:41:22.280Z,99859.61
2017-05-18T00:43:51.345Z,99848.30
2017-05-18T00:46:20.427Z,99852.09
2017-05-18T00:48:49.465Z,99854.07
2017-05-18T00:51:18.524Z,99848.11
2017-05-18T00:53:48.373Z,99852.45
2017-05-18T00:56:17.425Z,99849.70
2017-05-18T00:58:46.472Z,99856.50
2017-05-18T01:01:15.540Z,99851.34
2017-05-18T01:03:44.579Z,99843.43
2017-05-18T01:06:13.632Z,99848.00
2017-05-18T01:08:42.958Z,99844.23
2017-05-18T01:11:12.366Z,99841.91
2017-05-18T01:13:41.413Z,99836.03
2017-05-18T01:16:10.493Z,99846.11
2017-05-18T01:18:39.768Z,99837.20
2017-05-18T01:21:08.815Z,99837.60
2017-05-18T01:23:37.875Z,99837.78
2017-05-18T01:26:06.918Z,99835.02
2017-05-18T01:28:35.976Z,99830.08
2017-05-18T01:31:05.020Z,99829.73
2017-05-18T01:33:34.089Z,99832.32
2017-05-18T01:36:03.158Z,99828.11
2017-05-18T01:38:32.201Z,99828.51
2017-05-18T01:41:01.292Z,99822.78
2017-05-18T01:43:30.350Z,99820.36
2017-05-18T01:45:59.385Z,99819.18
2017-05-18T01:48:28.441Z,99811.27
2017-05-18T01:50:57.499Z,99812.67
2017-05-18T01:53:26.543Z,99806.74
2017-05-18T01:55:55.605Z,99811.66
2017-05-18T01:58:24.653Z,99811.89
2017-05-18T02:00:53.721Z,99814.40
2017-05-18T02:03:22.803Z,99811.08
2017-05-18T02:05:51.858Z,99802.80
2017-05-18T02:08:20.930Z,99804.45
2017-05-18T02:10:50.177Z,99805.17
2017-05-18T02:13:19.238Z,99803.34
2017-05-18T02:15:48.314Z,99804.31
2017-05-18T02:18:17.431Z,99808.67
2017-05-18T02:20:46.471Z,99800.39
2017-05-18T02:23:15.773Z,99808.41
2017-05-18T02:25:44.813Z,99811.16
2017-05-18T02:28:13.884Z,99806.80
2017-05-18T02:30:42.932Z,99806.56
2017-05-18T02:33:11.989Z,99806.34
2017-05-18T02:35:41.049Z,99810.20
2017-05-18T02:38:10.136Z,99815.31
2017-05-18T02:40:39.199Z,99820.65
2017-05-18T02:43:08.276Z,99824.20
2017-05-18T02:45:37.330Z,99827.00
2017-05-18T02:48:06.608Z,99831.15
2017-05-18T02:50:35.658Z,99827.80
2017-05-18T02:53:04.697Z,99824.74
2017-05-18T02:55:33.772Z,99825.63
2017-05-18T02:58:03.051Z,99836.75
2017-05-18T03:00:32.120Z,99831.63
2017-05-18T03:03:01.179Z,99835.64
2017-05-18T03:05:30.225Z,99839.58
2017-05-18T03:07:59.478Z,99841.95
2017-05-18T03:10:28.741Z,99844.96
2017-05-18T03:12:57.783Z,99847.56
2017-05-18T03:15:26.852Z,99851.53
2017-05-18T03:17:55.906Z,99852.77
2017-05-18T03:20:24.956Z,99855.20
2017-05-18T03:22:54.007Z,99855.66
2017-05-18T03:25:23.081Z,99861.38
2017-05-18T03:27:52.177Z,99857.63
2017-05-18T03:30:21.235Z,99867.55
2017-05-18T03:32:50.287Z,99861.03
2017-05-18T03:35:19.381Z,99869.55
2017-05-18T03:37:48.634Z,99870.72
2017-05-18T03:40:17.695Z,99870.73
2017-05-18T03:42:46.744Z,99869.00
2017-05-18T03:45:15.838Z,99867.83
2017-05-18T03:47:45.100Z,99879.14
2017-05-18T03:50:14.165Z,99871.84
2017-05-18T03:52:43.233Z,99877.42
2017-05-18T03:55:12.284Z,99877.67
2017-05-18T03:57:41.338Z,99877.28
2017-05-18T04:00:10.385Z,99875.10
2017-05-18T04:02:39.429Z,99875.11
2017-05-18T04:05:08.480Z,99874.31
2017-05-18T04:07:37.519Z,99876.91
2017-05-18T04:10:06.562Z,99877.91
2017-05-18T04:12:35.643Z,99882.22
2017-05-18T04:15:04.717Z,99879.86
2017-05-18T04:17:33.762Z,99885.78
2017-05-18T04:20:02.796Z,99888.34
2017-05-18T04:22:31.855Z,99893.91
2017-05-18T04:25:00.914Z,99890.75
2017-05-18T04:27:29.984Z,99892.92
2017-05-18T04:29:59.066Z,99896.47
2017-05-18T04:32:28.145Z,99895.52
2017-05-18T04:34:57.187Z,99894.49
2017-05-18T04:37:26.259Z,99896.09
2017-05-18T04:39:55.297Z,99895.70
2017-05-18T04:42:24.374Z,99894.90
2017-05-18T04:44:53.421Z,99897.23
2017-05-18T04:47:22.693Z,99898.39
2017-05-18T04:49:51.773Z,99896.02
2017-05-18T04:52:21.028Z,99894.02
2017-05-18T04:54:50.097Z,99889.89
2017-05-18T04:57:19.177Z,99896.59
2017-05-18T04:59:48.266Z,99901.11
2017-05-18T05:02:17.339Z,99908.03
2017-05-18T05:04:46.400Z,99913.56
2017-05-18T05:07:15.506Z,99912.73
2017-05-18T05:09:44.556Z,99911.34
2017-05-18T05:12:13.626Z,99910.72
2017-05-18T05:14:42.710Z,99913.86
2017-05-18T05:17:11.768Z,99916.03
2017-05-18T05:19:41.569Z,99922.50
2017-05-18T05:22:11.377Z,99924.48
2017-05-18T05:24:40.421Z,99924.69
2017-05-18T05:27:09.465Z,99927.64
2017-05-18T05:29:38.534Z,99921.28
2017-05-18T05:32:07.625Z,99924.46
2017-05-18T05:34:36.709Z,99927.20
2017-05-18T05:37:05.828Z,99926.17
2017-05-18T05:39:34.897Z,99929.67
2017-05-18T05:42:03.998Z,99936.16
2017-05-18T05:44:33.594Z,99935.68
2017-05-18T05:47:02.630Z,99937.96
2017-05-18T05:49:31.673Z,99944.55
2017-05-18T05:52:00.752Z,99946.09
2017-05-18T05:54:29.816Z,99951.84
2017-05-18T05:56:58.857Z,99951.56
2017-05-18T05:59:27.952Z,99960.28
2017-05-18T06:01:57.015Z,99957.40
2017-05-18T06:04:26.814Z,99951.61
2017-05-18T06:06:55.899Z,99959.80
2017-05-18T06:09:24.964Z,99961.18
2017-05-18T06:11:54.073Z,99965.18
2017-05-18T06:14:23.138Z,99960.42
2017-05-18T06:16:52.180Z,99962.48
2017-05-18T06:19:21.270Z,99970.00
2017-05-18T06:21:50.333Z,99968.36
2017-05-18T06:24:19.404Z,99973.77
2017-05-18T06:26:48.774Z,99976.94
2017-05-18T06:29:18.048Z,99977.90
2017-05-18T06:31:47.118Z,99970.99
2017-05-18T06:34:16.217Z,99978.22
2017-05-18T06:36:45.273Z,99984.95
2017-05-18T06:39:15.176Z,99987.09
2017-05-18T06:41:44.415Z,99996.88
2017-05-18T06:44:13.492Z,99995.83
2017-05-18T06:46:43.315Z,100009.36
2017-05-18T06:49:12.385Z,100014.28
2017-05-18T06:51:41.515Z,100018.81
2017-05-18T06:54:10.562Z,100024.86
2017-05-18T06:56:39.640Z,100018.59
2017-05-18T06:59:08.726Z,100005.96
2017-05-18T07:01:37.782Z,99986.22
2017-05-18T07:04:07.606Z,100001.61
2017-05-18T07:06:36.680Z,100008.80
2017-05-18T07:09:07.435Z,100015.11
2017-05-18T07:11:36.493Z,100028.13
2017-05-18T07:14:05.559Z,100037.08
2017-05-18T07:16:34.644Z,100034.13
2017-05-18T07:19:03.716Z,100034.25
2017-05-18T07:21:32.804Z,100035.88
2017-05-18T07:24:02.077Z,100038.77
2017-05-18T07:26:31.115Z,100041.38
2017-05-18T07:29:00.184Z,100046.84
2017-05-18T07:31:29.984Z,100044.69
2017-05-18T07:33:59.055Z,100052.44
2017-05-18T07:36:28.113Z,100054.58
2017-05-18T07:38:57.180Z,100055.34
2017-05-18T07:41:27.004Z,100062.00
2017-05-18T07:43:56.187Z,100066.70
2017-05-18T07:46:26.340Z,100066.16
2017-05-18T07:48:55.385Z,100064.47
2017-05-18T07:51:24.442Z,100074.87
2017-05-18T07:53:53.557Z,100068.39
2017-05-18T07:56:22.967Z,100063.49
2017-05-18T07:58:52.273Z,100063.47
2017-05-18T08:01:21.334Z,100058.48
2017-05-18T08:03:50.455Z,100063.05
2017-05-18T08:06:19.536Z,100063.91
2017-05-18T08:08:48.585Z,100049.41
2017-05-18T08:11:17.650Z,100046.57
2017-05-18T08:13:46.761Z,100041.75
2017-05-18T08:16:15.841Z,100045.32
2017-05-18T08:18:44.917Z,100049.64
2017-05-18T08:21:13.977Z,100058.64
2017-05-18T08:23:43.145Z,100059.97
2017-05-18T08:26:12.214Z,100063.59
2017-05-18T08:28:41.277Z,100065.11
2017-05-18T08:31:10.343Z,100059.77
2017-05-18T08:33:39.409Z,100064.45
2017-05-18T08:36:08.468Z,100063.52
2017-05-18T08:38:37.540Z,100062.27
2017-05-18T08:41:06.586Z,100063.66
2017-05-18T08:43:35.685Z,100065.02
2017-05-18T08:46:04.772Z,100064.47
2017-05-18T08:48:33.862Z,100067.75
2017-05-18T08:51:03.042Z,100066.56
2017-05-18T08:53:32.105Z,100065.33
2017-05-18T08:56:01.220Z,100074.75
2017-05-18T08:58:30.367Z,100076.83
2017-05-18T09:00:59.425Z,100068.27
2017-05-18T09:03:28.511Z,100074.36
2017-05-18T09:05:57.560Z,100071.58
2017-05-18T09:08:26.634Z,100080.07
2017-05-18T09:10:55.753Z,100082.10
2017-05-18T09:13:24.832Z,100085.36
2017-05-18T09:15:54.052Z,100090.43
2017-05-18T09:18:23.116Z,100086.23
2017-05-18T09:20:52.187Z,100084.69
2017-05-18T09:23:21.228Z,100082.73
2017-05-18T09:25:50.278Z,100080.86
2017-05-18T09:28:19.370Z,100081.47
2017-05-18T09:30:48.421Z,100079.50
2017-05-18T09:33:17.543Z,100086.80
2017-05-18T09:35:46.665Z,100082.64
2017-05-18T09:38:15.729Z,100081.08
2017-05-18T09:40:45.529Z,100093.48
2017-05-18T09:43:16.051Z,100089.22
2017-05-18T09:45:45.383Z,100089.72
2017-05-18T09:48:14.465Z,100080.95
2017-05-18T09:50:44.275Z,100084.73
2017-05-18T09:53:14.161Z,100077.86
2017-05-18T09:55:43.222Z,100080.19
2017-05-18T09:58:12.648Z,100077.61
2017-05-18T10:00:41.731Z,100075.91
2017-05-18T10:03:11.293Z,100084.34
2017-05-18T10:05:41.112Z,100070.95
2017-05-18T10:08:10.217Z,100068.54
2017-05-18T10:10:39.316Z,100072.18
2017-05-18T10:13:08.424Z,100070.33
2017-05-18T10:15:37.536Z,100070.11
2017-05-18T10:18:06.615Z,100069.33
2017-05-18T10:20:35.665Z,100073.70
2017-05-18T10:23:05.446Z,100076.94
2017-05-18T10:25:34.549Z,100071.13
2017-05-18T10:28:03.642Z,100074.80
2017-05-18T10:30:32.697Z,100074.30
2017-05-18T10:33:01.753Z,100074.09
2017-05-18T10:35:30.829Z,100067.55
2017-05-18T10:37:59.889Z,100077.36
2017-05-18T10:40:28.940Z,100068.98
2017-05-18T10:42:58.027Z,100072.68
2017-05-18T10:45:27.094Z,100064.75
2017-05-18T10:47:56.173Z,100059.69
2017-05-18T10:50:25.238Z,100065.11
2017-05-18T10:52:54.299Z,100063.75
2017-05-18T10:55:23.449Z,100064.00
2017-05-18T10:57:52.553Z,100057.92
2017-05-18T11:00:21.627Z,100056.21
2017-05-18T11:02:50.736Z,100061.84
2017-05-18T11:05:19.777Z,100062.89
2017-05-18T11:07:48.856Z,100056.39
2017-05-18T11:10:17.939Z,100051.38
2017-05-18T11:12:47.139Z,100050.64
2017-05-18T11:15:16.226Z,100045.98
2017-05-18T11:17:45.297Z,100048.80
2017-05-18T11:20:14.379Z,100049.94
2017-05-18T11:22:43.453Z,100038.47
2017-05-18T11:25:12.525Z,100037.03
2017-05-18T11:27:41.573Z,100025.98
2017-05-18T11:30:10.645Z,100032.32
2017-05-18T11:32:39.733Z,100031.78
2017-05-18T11:35:08.805Z,100033.61
2017-05-18T11:37:37.868Z,100032.28
2017-05-18T11:40:07.016Z,100025.81
2017-05-18T11:42:36.106Z,100024.83
2017-05-18T11:45:05.189Z,100019.04
2017-05-18T11:47:34.268Z,100030.39
2017-05-18T11:50:03.337Z,100029.19
2017-05-18T11:52:32.398Z,100031.27
2017-05-18T11:55:01.517Z,100037.32
2017-05-18T11:57:30.567Z,100044.73
2017-05-18T11:59:59.647Z,100062.26
2017-05-18T12:02:29.710Z,100051.34
2017-05-18T12:04:58.769Z,100034.59
2017-05-18T12:07:30.109Z,100037.09
2017-05-18T12:10:01.692Z,100033.69
2017-05-18T12:12:32.955Z,100043.80
2017-05-18T12:15:02.758Z,100053.98
2017-05-18T12:17:32.162Z,100049.95
2017-05-18T12:20:04.524Z,100038.73
2017-05-18T12:22:38.566Z,100055.30
2017-05-18T12:25:11.724Z,100098.23
2017-05-18T12:27:42.221Z,100132.23
2017-05-18T12:30:11.331Z,100122.84
2017-05-18T12:32:44.631Z,100130.50
2017-05-18T12:35:20.094Z,100124.52
2017-05-18T12:37:54.191Z,100135.99
2017-05-18T12:40:30.646Z,100119.41
2017-05-18T12:43:05.588Z,100118.02
2017-05-18T12:45:41.565Z,100108.45
2017-05-18T12:48:10.639Z,100110.77
2017-05-18T12:50:39.712Z,100098.83
2017-05-18T12:53:10.818Z,100102.61
2017-05-18T12:55:40.574Z,100097.70
2017-05-18T12:58:12.618Z,100100.25
2017-05-18T13:00:49.186Z,100108.58
2017-05-18T13:03:20.429Z,100107.65
2017-05-18T13:05:52.648Z,100113.56
2017-05-18T13:08:23.916Z,100108.17
2017-05-18T13:10:57.216Z,100102.95
2017-05-18T13:13:26.384Z,100102.63
2017-05-18T13:16:00.457Z,100103.19
2017-05-18T13:18:32.255Z,100104.02
2017-05-18T13:21:05.954Z,100095.00
2017-05-18T13:23:40.233Z,100099.72
2017-05-18T13:26:15.212Z,100100.31
2017-05-18T13:28:47.279Z,100103.86
2017-05-18T13:31:21.387Z,100109.72
2017-05-18T13:33:57.152Z,100114.17
2017-05-18T13:36:27.941Z,100110.92
2017-05-18T13:39:00.858Z,100110.05
2017-05-18T13:41:35.245Z,100110.35
2017-05-18T13:44:09.684Z,100102.69
2017-05-18T13:46:44.335Z,100099.08
2017-05-18T13:49:20.995Z,100112.08
2017-05-18T13:51:52.720Z,100111.14
2017-05-18T13:54:29.119Z,100112.22
2017-05-18T13:57:03.890Z,100117.63
2017-05-18T13:59:40.190Z,100111.72
2017-05-18T14:02:13.710Z,100105.45
2017-05-18T14:04:46.551Z,100095.03
2017-05-18T14:07:21.774Z,100088.53
2017-05-18T14:09:55.339Z,100080.66
2017-05-18T14:12:31.277Z,100076.68
2017-05-18T14:15:05.745Z,100072.14
2017-05-18T14:17:42.667Z,100062.59
2017-05-18T14:20:15.175Z,100054.55
2017-05-18T14:22:47.134Z,100047.07
2017-05-18T14:25:19.814Z,100041.64
2017-05-18T14:27:52.393Z,100035.58
2017-05-18T14:30:27.175Z,100040.73
2017-05-18T14:32:56.984Z,100038.17
2017-05-18T14:35:26.133Z,100031.83
2017-05-18T14:37:55.235Z,100022.74
2017-05-18T14:40:24.289Z,100022.34
2017-05-18T14:42:53.359Z,100026.48
2017-05-18T14:45:23.165Z,100037.51
2017-05-18T14:47:53.054Z,100033.25
2017-05-18T14:50:22.426Z,100036.17
2017-05-18T14:52:51.484Z,100034.55
2017-05-18T14:55:22.307Z,100032.52
2017-05-18T14:57:51.966Z,100039.95
2017-05-18T15:00:21.047Z,100044.36
2017-05-18T15:02:54.630Z,100043.45
2017-05-18T15:05:24.470Z,100046.87
2017-05-18T15:07:53.531Z,100053.59
2017-05-18T15:10:24.843Z,100058.36
2017-05-18T15:12:58.161Z,100063.87
2017-05-18T15:15:29.915Z,100066.89
2017-05-18T15:17:58.972Z,100063.34
2017-05-18T15:20:31.566Z,100059.62
2017-05-18T15:23:01.371Z,100060.41
2017-05-18T15:25:32.722Z,100061.25
2017-05-18T15:28:04.005Z,100056.74
2017-05-18T15:30:36.036Z,100050.51
2017-05-18T15:33:08.836Z,100046.55
2017-05-18T15:35:41.804Z,100040.06
2017-05-18T15:38:15.911Z,100040.06
2017-05-18T15:40:47.060Z,100049.13
2017-05-18T15:43:16.128Z,100055.03
2017-05-18T15:45:50.136Z,100057.78
2017-05-18T15:48:23.803Z,100056.99
2017-05-18T15:50:58.212Z,100054.16
2017-05-18T15:53:28.453Z,100051.16
2017-05-18T15:56:03.717Z,100045.64
2017-05-18T15:58:38.503Z,100058.08
2017-05-18T16:01:13.669Z,100063.23
2017-05-18T16:03:49.466Z,100059.70
2017-05-18T16:06:24.356Z,100050.81
2017-05-18T16:08:56.609Z,100052.34
2017-05-18T16:11:33.866Z,100044.43
2017-05-18T16:14:02.942Z,100048.99
2017-05-18T16:16:38.793Z,100052.93
2017-05-18T16:19:14.973Z,100050.40
2017-05-18T16:21:50.257Z,100044.48
2017-05-18T16:24:22.910Z,100049.61
2017-05-18T16:26:59.144Z,100053.13
2017-05-18T16:29:36.701Z,100050.37
2017-05-18T16:32:13.065Z,100050.20
2017-05-18T16:34:49.295Z,100051.98
2017-05-18T16:37:23.375Z,100037.80
2017-05-18T16:40:03.730Z,100024.62
2017-05-18T16:42:37.540Z,100020.28
2017-05-18T16:45:11.009Z,100014.55
2017-05-18T16:47:47.072Z,100004.29
2017-05-18T16:50:22.662Z,100000.16
2017-05-18T16:52:54.788Z,100002.13
2017-05-18T16:55:27.746Z,100004.88
2017-05-18T16:58:00.708Z,100003.70
2017-05-18T17:00:33.253Z,100007.52
2017-05-18T17:03:07.665Z,100006.54
2017-05-18T17:05:41.453Z,100006.77
2017-05-18T17:08:14.186Z,100002.61
2017-05-18T17:10:49.240Z,99991.38
2017-05-18T17:13:23.642Z,99981.06
2017-05-18T17:15:56.127Z,99976.09
2017-05-18T17:18:27.676Z,99983.15
2017-05-18T17:21:02.769Z,99977.64
2017-05-18T17:23:37.873Z,99974.66
2017-05-18T17:26:10.318Z,99974.06
2017-05-18T17:28:42.805Z,99965.97
2017-05-18T17:31:16.161Z,99969.32
2017-05-18T17:33:50.890Z,99961.81
2017-05-18T17:36:24.709Z,99970.47
2017-05-18T17:38:58.389Z,99968.48
2017-05-18T17:41:30.181Z,99967.46
2017-05-18T17:44:03.557Z,99965.49
2017-05-18T17:46:36.402Z,99969.83
2017-05-18T17:49:10.851Z,99968.64
2017-05-18T17:51:45.017Z,99969.83
2017-05-18T17:54:17.414Z,99969.20
2017-05-18T17:56:52.002Z,99968.45
2017-05-18T17:59:23.567Z,99976.75
2017-05-18T18:01:55.232Z,99969.63
2017-05-18T18:04:32.071Z,99967.89
2017-05-18T18:07:08.327Z,99967.30
2017-05-18T18:09:41.834Z,99966.14
2017-05-18T18:12:18.048Z,99966.53
2017-05-18T18:14:52.670Z,99969.91
2017-05-18T18:17:24.634Z,99966.59
2017-05-18T18:20:00.159Z,99958.52
2017-05-18T18:22:33.345Z,99952.80
2017-05-18T18:25:04.402Z,99954.38
2017-05-18T18:27:37.325Z,99947.26
2017-05-18T18:30:16.089Z,99942.55
2017-05-18T18:32:47.747Z,99947.09
2017-05-18T18:35:22.225Z,99954.17
2017-05-18T18:37:57.995Z,99949.08
2017-05-18T18:40:31.224Z,99944.34
2017-05-18T18:43:06.561Z,99948.88
2017-05-18T18:45:38.409Z,99946.12
2017-05-18T18:48:13.612Z,99944.55
2017-05-18T18:50:49.637Z,99941.96
2017-05-18T18:53:22.797Z,99945.11
2017-05-18T18:55:56.348Z,99940.36
2017-05-18T18:58:29.682Z,99935.45
2017-05-18T19:01:01.859Z,99932.30
2017-05-18T19:03:37.921Z,99927.56
2017-05-18T19:06:12.373Z,99931.51
2017-05-18T19:08:46.060Z,99927.17
2017-05-18T19:11:19.756Z,99923.80
2017-05-18T19:13:53.919Z,99923.80
2017-05-18T19:16:26.958Z,99929.32
2017-05-18T19:19:03.135Z,99924.17
2017-05-18T19:21:35.819Z,99922.38
2017-05-18T19:24:14.863Z,99923.96
2017-05-18T19:26:46.282Z,99920.41
2017-05-18T19:29:22.307Z,99914.11
2017-05-18T19:31:53.800Z,99913.30
2017-05-18T19:34:29.191Z,99921.18
2017-05-18T19:37:02.878Z,99920.20
2017-05-18T19:39:39.192Z,99919.97
2017-05-18T19:42:13.850Z,99921.14
2017-05-18T19:44:47.098Z,99919.77
2017-05-18T19:47:21.629Z,99923.48
2017-05-18T19:49:56.825Z,99915.78
2017-05-18T19:52:29.592Z,99914.00
2017-05-18T19:55:01.232Z,99921.84
2017-05-18T19:57:37.519Z,99916.33
2017-05-18T20:00:13.983Z,99923.58
2017-05-18T20:02:44.924Z,99917.09
2017-05-18T20:05:20.197Z,99908.83
2017-05-18T20:07:52.057Z,99912.17
2017-05-18T20:10:24.067Z,99909.41
2017-05-18T20:12:55.092Z,99915.71
2017-05-18T20:15:31.183Z,99900.36
2017-05-18T20:18:03.688Z,99905.05
2017-05-18T20:20:39.186Z,99904.27
2017-05-18T20:23:13.202Z,99900.33
2017-05-18T20:25:48.412Z,99907.77
2017-05-18T20:28:21.104Z,99905.61
2017-05-18T20:30:51.147Z,99899.50
2017-05-18T20:33:24.686Z,99901.24
2017-05-18T20:36:02.133Z,99899.67
2017-05-18T20:38:36.628Z,99899.27
2017-05-18T20:41:10.293Z,99901.24
2017-05-18T20:43:42.245Z,99896.13
2017-05-18T20:46:16.532Z,99890.78
2017-05-18T20:48:52.699Z,99891.37
2017-05-18T20:51:25.359Z,99886.84
2017-05-18T20:53:57.690Z,99886.84
2017-05-18T20:56:27.571Z,99888.19
2017-05-18T20:59:03.266Z,99887.20
2017-05-18T21:01:37.440Z,99882.09
2017-05-18T21:04:13.718Z,99885.34
2017-05-18T21:06:45.630Z,99889.28
2017-05-18T21:09:19.878Z,99887.31
2017-05-18T21:11:55.796Z,99880.00
2017-05-18T21:14:28.966Z,99874.09
2017-05-18T21:17:02.523Z,99871.94
2017-05-18T21:19:36.694Z,99867.21
2017-05-18T21:22:08.981Z,99872.72
2017-05-18T21:24:41.039Z,99872.13
2017-05-18T21:27:14.821Z,99868.36
2017-05-18T21:29:50.451Z,99864.42
2017-05-18T21:32:23.904Z,99864.63
2017-05-18T21:34:56.562Z,99866.78
2017-05-18T21:37:34.860Z,99865.39
2017-05-18T21:40:04.882Z,99865.72
2017-05-18T21:42:36.893Z,99871.05
2017-05-18T21:45:08.040Z,99865.71
2017-05-18T21:47:44.822Z,99855.66
2017-05-18T21:50:21.347Z,99854.67
2017-05-18T21:52:52.637Z,99850.34
2017-05-18T21:55:25.336Z,99847.39
2017-05-18T21:57:56.453Z,99841.90
2017-05-18T22:00:31.091Z,99836.78
2017-05-18T22:03:07.436Z,99835.36
2017-05-18T22:05:40.396Z,99841.02
2017-05-18T22:08:15.061Z,99843.18
2017-05-18T22:10:45.245Z,99840.27
2017-05-18T22:13:19.002Z,99840.46
2017-05-18T22:15:51.597Z,99843.61
2017-05-18T22:18:25.227Z,99841.80
2017-05-18T22:20:55.539Z,99841.02
2017-05-18T22:23:31.851Z,99837.87
2017-05-18T22:26:06.778Z,99837.47
2017-05-18T22:28:43.396Z,99836.30
2017-05-18T22:31:16.312Z,99836.88
2017-05-18T22:33:47.143Z,99831.38
2017-05-18T22:36:18.815Z,99826.67
2017-05-18T22:38:52.087Z,99827.22
2017-05-18T22:41:24.206Z,99823.47
2017-05-18T22:43:56.985Z,99818.95
2017-05-18T22:46:30.557Z,99808.34
2017-05-18T22:49:04.955Z,99804.42
2017-05-18T22:51:38.977Z,99800.25
2017-05-18T22:54:12.857Z,99798.82
2017-05-18T22:56:49.799Z,99790.92
2017-05-18T22:59:25.641Z,99788.31
2017-05-18T23:02:00.826Z,99787.70
2017-05-18T23:04:36.709Z,99783.55
2017-05-18T23:07:14.982Z,99773.73
2017-05-18T23:09:47.665Z,99766.05
2017-05-18T23:12:23.733Z,99765.63
2017-05-18T23:14:58.237Z,99753.06
2017-05-18T23:17:34.150Z,99746.58
2017-05-18T23:20:06.525Z,99750.70
2017-05-18T23:22:38.413Z,99750.64
2017-05-18T23:25:15.326Z,99752.75
2017-05-18T23:27:48.339Z,99744.10
2017-05-18T23:30:21.665Z,99740.28
2017-05-18T23:32:54.452Z,99751.02
2017-05-18T23:35:31.410Z,99748.03
2017-05-18T23:38:04.625Z,99744.68
2017-05-18T23:40:36.558Z,99738.40
2017-05-18T23:43:08.993Z,99738.73
2017-05-18T23:45:41.655Z,99732.83
2017-05-18T23:48:18.765Z,99743.97
2017-05-18T23:50:49.946Z,99730.61
2017-05-18T23:53:27.241Z,99736.97
2017-05-18T23:56:02.048Z,99737.09
2017-05-18T23:58:34.226Z,99741.19
